Time;durP1;ratioP1;P1;durP2;ratioP2;P2;SDS_P1;SDS_P2;PMS_P1;PMS_P2;Temp;Humidity;BMP_temperature;BMP_pressure;BME280_temperature;BME280_humidity;BME280_pressure;Samples;Min_cycle;Max_cycle;Signal;HPM_P1;HPM_P2
2021/12/08 00:00:55;;;;;;;35.65;26.15;;;2.80;99.90;;;;;;5075260;28;20398;-56
2021/12/08 00:03:23;;;;;;;34.95;25.77;;;2.80;99.90;;;;;;5074436;28;20439;-55
2021/12/08 00:05:50;;;;;;;34.78;26.10;;;2.80;99.90;;;;;;5076217;28;20379;-57
2021/12/08 00:08:18;;;;;;;35.55;26.05;;;2.80;99.90;;;;;;5074478;28;20391;-57
2021/12/08 00:13:28;;;;;;;37.05;27.45;;;2.80;99.90;;;;;;5074474;28;20395;-56
2021/12/08 00:16:00;;;;;;;33.70;26.00;;;2.80;99.90;;;;;;5073736;28;20383;-52
2021/12/08 00:18:28;;;;;;;33.55;25.70;;;2.70;99.90;;;;;;5075356;28;20663;-53
2021/12/08 00:20:58;;;;;;;38.05;27.50;;;2.70;99.90;;;;;;5073455;28;20445;-53
2021/12/08 00:23:25;;;;;;;37.35;26.95;;;2.70;99.90;;;;;;5075007;28;20520;-55
2021/12/08 00:25:51;;;;;;;37.05;27.08;;;2.70;99.90;;;;;;5072778;28;20379;-53
2021/12/08 00:28:17;;;;;;;37.40;26.52;;;2.80;99.90;;;;;;5071831;28;20522;-53
2021/12/08 00:30:47;;;;;;;33.25;25.48;;;2.70;99.90;;;;;;5072614;28;20394;-56
2021/12/08 00:33:14;;;;;;;37.07;27.83;;;2.70;99.90;;;;;;5073845;28;20713;-55
2021/12/08 00:35:45;;;;;;;35.03;25.65;;;2.80;99.90;;;;;;5072272;28;20387;-55
2021/12/08 00:38:12;;;;;;;37.95;26.88;;;2.70;99.90;;;;;;5072015;28;20384;-56
2021/12/08 00:40:38;;;;;;;35.70;26.38;;;2.80;99.90;;;;;;5073120;28;20433;-55
2021/12/08 00:43:06;;;;;;;36.55;26.40;;;2.80;99.90;;;;;;5071256;28;20404;-55
2021/12/08 00:45:32;;;;;;;40.10;27.75;;;2.70;99.90;;;;;;5071854;28;20380;-59
2021/12/08 00:47:58;;;;;;;37.63;27.10;;;2.80;99.90;;;;;;5075273;28;20540;-56
2021/12/08 00:50:27;;;;;;;36.93;27.40;;;2.70;99.90;;;;;;5075915;28;20412;-57
2021/12/08 00:52:52;;;;;;;40.05;27.15;;;2.70;99.90;;;;;;5075953;28;20383;-59
2021/12/08 00:55:19;;;;;;;37.97;26.20;;;2.80;99.90;;;;;;5076575;28;20672;-57
2021/12/08 00:57:45;;;;;;;38.38;26.65;;;2.80;99.90;;;;;;5076622;28;20496;-59
2021/12/08 01:00:22;;;;;;;38.58;27.17;;;2.80;99.90;;;;;;5074585;28;20411;-57
2021/12/08 01:02:48;;;;;;;37.55;27.50;;;2.80;99.90;;;;;;5071762;28;20404;-57
2021/12/08 01:05:17;;;;;;;40.45;27.63;;;2.70;99.90;;;;;;5071918;28;20375;-58
2021/12/08 01:07:43;;;;;;;38.13;26.70;;;2.70;99.90;;;;;;5074359;28;20656;-57
2021/12/08 01:10:22;;;;;;;36.90;26.45;;;2.70;99.90;;;;;;5075116;28;20368;-59
2021/12/08 01:12:48;;;;;;;36.92;26.13;;;2.70;99.90;;;;;;5073293;28;20391;-58
2021/12/08 01:15:14;;;;;;;39.22;26.05;;;2.60;99.90;;;;;;5074163;28;20407;-55
2021/12/08 01:17:40;;;;;;;38.80;26.83;;;2.70;99.90;;;;;;5071587;28;20384;-57
2021/12/08 01:20:09;;;;;;;38.35;25.98;;;2.70;99.90;;;;;;5075025;28;20398;-55
2021/12/08 01:22:35;;;;;;;37.63;26.48;;;2.70;99.90;;;;;;5073874;28;20495;-59
2021/12/08 01:25:01;;;;;;;36.50;25.15;;;2.70;99.90;;;;;;5074114;28;20478;-59
2021/12/08 01:27:26;;;;;;;37.38;26.02;;;2.70;99.90;;;;;;5074350;28;20445;-56
2021/12/08 01:29:52;;;;;;;37.17;25.55;;;2.70;99.90;;;;;;5075336;28;20431;-59
2021/12/08 01:32:19;;;;;;;35.75;25.92;;;2.70;99.90;;;;;;5075135;28;20850;-58
2021/12/08 01:34:45;;;;;;;35.22;24.17;;;2.80;99.90;;;;;;5074563;28;20402;-59
2021/12/08 01:37:11;;;;;;;33.13;23.97;;;2.70;99.90;;;;;;5075265;28;20548;-58
2021/12/08 01:39:36;;;;;;;31.80;23.42;;;2.70;99.90;;;;;;5074608;28;20403;-53
2021/12/08 01:42:03;;;;;;;31.90;24.20;;;2.80;99.90;;;;;;5074169;28;20419;-57
2021/12/08 01:47:12;;;;;;;32.08;23.17;;;2.80;99.90;;;;;;5072641;28;20429;-55
2021/12/08 01:49:38;;;;;;;34.33;23.17;;;2.80;99.90;;;;;;5071911;28;20416;-54
2021/12/08 01:52:04;;;;;;;34.07;23.27;;;2.80;99.90;;;;;;5072483;28;20375;-58
2021/12/08 01:54:30;;;;;;;33.05;23.00;;;2.80;99.90;;;;;;5072275;28;20490;-57
2021/12/08 01:57:00;;;;;;;29.20;21.95;;;2.80;99.90;;;;;;5075126;28;20388;-58
2021/12/08 01:59:26;;;;;;;30.50;22.63;;;2.80;99.90;;;;;;5076188;28;20714;-59
2021/12/08 02:01:53;;;;;;;29.77;22.30;;;2.80;99.90;;;;;;5075588;28;20398;-58
2021/12/08 02:04:21;;;;;;;30.17;21.92;;;2.80;99.90;;;;;;5077871;28;20388;-57
2021/12/08 02:06:47;;;;;;;31.45;21.63;;;2.80;99.90;;;;;;5075987;28;20573;-58
2021/12/08 02:09:15;;;;;;;31.50;22.17;;;2.90;99.90;;;;;;5076324;28;20478;-59
2021/12/08 02:11:45;;;;;;;30.00;21.80;;;2.90;99.90;;;;;;5042681;28;20403;-59
2021/12/08 02:14:13;;;;;;;29.45;21.40;;;2.90;99.90;;;;;;5067046;28;20780;-59
2021/12/08 02:16:40;;;;;;;30.35;21.10;;;3.00;99.90;;;;;;5059905;28;20414;-59
2021/12/08 02:19:08;;;;;;;29.15;20.52;;;2.90;99.90;;;;;;5076241;28;20391;-59
2021/12/08 02:21:39;;;;;;;28.73;20.65;;;2.90;99.90;;;;;;5075266;28;20407;-59
2021/12/08 02:24:12;;;;;;;30.88;21.63;;;3.00;99.90;;;;;;5057138;28;20387;-59
2021/12/08 02:26:41;;;;;;;28.98;21.67;;;2.90;99.90;;;;;;5057504;28;20479;-55
2021/12/08 02:29:11;;;;;;;30.73;21.30;;;3.00;99.90;;;;;;5056694;28;20711;-57
2021/12/08 02:31:58;;;;;;;33.45;21.75;;;2.90;99.90;;;;;;5074643;28;20376;-59
2021/12/08 02:48:11;;;;;;;29.70;21.13;;;3.00;99.90;;;;;;5075315;28;20525;-59
2021/12/08 02:50:43;;;;;;;27.48;20.42;;;3.00;99.90;;;;;;5058449;28;20383;-59
2021/12/08 02:53:13;;;;;;;30.33;20.70;;;3.00;99.90;;;;;;5058343;28;20395;-56
2021/12/08 02:55:41;;;;;;;28.40;20.00;;;3.00;99.90;;;;;;5056731;28;20395;-59
2021/12/08 02:58:07;;;;;;;30.17;20.35;;;3.00;99.90;;;;;;5058473;28;20783;-59
2021/12/08 03:00:43;;;;;;;27.58;19.75;;;3.00;99.90;;;;;;5058669;28;20395;-59
2021/12/08 03:03:10;;;;;;;27.15;20.20;;;3.00;99.90;;;;;;5058374;28;20417;-59
2021/12/08 03:05:35;;;;;;;27.95;20.27;;;3.00;99.90;;;;;;5076175;28;20960;-59
2021/12/08 03:08:03;;;;;;;26.85;19.33;;;3.00;99.90;;;;;;5058014;28;20396;-57
2021/12/08 03:10:32;;;;;;;27.35;19.70;;;3.00;99.90;;;;;;5075753;28;20434;-57
2021/12/08 03:12:59;;;;;;;27.17;19.73;;;3.00;99.90;;;;;;5052309;28;20500;-55
2021/12/08 03:15:26;;;;;;;28.33;20.08;;;3.00;99.90;;;;;;5055123;28;20428;-52
2021/12/08 03:17:53;;;;;;;26.30;19.20;;;3.00;99.90;;;;;;5055177;28;20424;-55
2021/12/08 03:20:26;;;;;;;23.70;18.63;;;3.00;99.90;;;;;;5055316;28;20393;-57
2021/12/08 03:22:59;;;;;;;24.77;18.70;;;3.00;99.90;;;;;;5071776;28;20420;-55
2021/12/08 03:25:28;;;;;;;28.23;20.02;;;3.00;99.90;;;;;;5053746;28;20454;-56
2021/12/08 03:28:06;;;;;;;25.42;18.80;;;3.00;99.90;;;;;;5054888;28;20781;-59
2021/12/08 03:30:38;;;;;;;25.92;18.60;;;3.00;99.90;;;;;;5055012;28;20451;-59
2021/12/08 03:33:09;;;;;;;26.73;18.85;;;3.00;99.90;;;;;;5055089;28;20431;-53
2021/12/08 03:35:36;;;;;;;25.70;18.47;;;3.00;99.90;;;;;;5035466;28;20699;-57
2021/12/08 03:38:04;;;;;;;24.10;17.05;;;3.00;99.90;;;;;;5034752;28;20465;-56
2021/12/08 03:40:32;;;;;;;25.07;17.93;;;3.00;99.90;;;;;;5042660;28;20791;-58
2021/12/08 03:42:58;;;;;;;24.95;17.48;;;3.10;99.90;;;;;;5034534;28;20472;-57
2021/12/08 03:45:34;;;;;;;25.48;17.73;;;3.10;99.90;;;;;;5034817;28;20387;-57
2021/12/08 03:48:05;;;;;;;22.83;16.83;;;3.10;99.90;;;;;;5051249;28;20475;-59
2021/12/08 03:50:37;;;;;;;24.83;16.10;;;3.00;99.90;;;;;;5035126;28;20410;-58
2021/12/08 03:53:06;;;;;;;23.52;16.83;;;3.00;99.90;;;;;;5034703;28;20391;-59
2021/12/08 03:55:32;;;;;;;23.55;16.55;;;3.00;99.90;;;;;;5034229;28;21020;-56
2021/12/08 03:58:00;;;;;;;22.42;16.27;;;3.00;99.90;;;;;;5034409;28;20452;-59
2021/12/08 04:00:29;;;;;;;22.17;16.00;;;3.00;99.90;;;;;;5034116;28;20481;-58
2021/12/08 04:02:59;;;;;;;21.95;15.88;;;3.10;99.90;;;;;;5034745;28;20739;-58
2021/12/08 04:05:40;;;;;;;22.98;16.80;;;3.00;99.90;;;;;;5033459;28;20398;-58
2021/12/08 04:08:15;;;;;;;22.98;15.90;;;3.00;99.90;;;;;;5034095;28;20394;-59
2021/12/08 04:10:48;;;;;;;21.90;15.55;;;3.10;99.90;;;;;;5035258;28;21063;-56
2021/12/08 04:13:16;;;;;;;23.33;16.83;;;3.10;99.90;;;;;;5033205;28;20422;-57
2021/12/08 04:15:42;;;;;;;22.92;16.42;;;3.10;99.90;;;;;;5033921;28;20449;-57
2021/12/08 04:18:07;;;;;;;21.05;15.65;;;3.10;99.90;;;;;;5035369;28;20448;-57
2021/12/08 04:20:39;;;;;;;22.83;16.58;;;3.10;99.90;;;;;;5034147;28;20403;-58
2021/12/08 04:23:08;;;;;;;22.23;15.93;;;3.10;99.90;;;;;;5033788;28;20415;-55
2021/12/08 04:25:38;;;;;;;23.08;15.80;;;3.10;99.90;;;;;;5034717;28;20390;-59
2021/12/08 04:28:08;;;;;;;23.63;16.40;;;3.10;99.90;;;;;;5052846;28;20474;-59
2021/12/08 04:30:45;;;;;;;23.33;16.70;;;3.10;99.90;;;;;;5051596;28;20891;-58
2021/12/08 04:33:11;;;;;;;22.80;16.55;;;3.10;99.90;;;;;;5054100;28;20390;-57
2021/12/08 04:35:40;;;;;;;23.90;16.25;;;3.10;99.90;;;;;;5070721;28;20385;-58
2021/12/08 04:38:09;;;;;;;23.02;16.55;;;3.10;99.90;;;;;;5057962;28;20409;-56
2021/12/08 04:40:56;;;;;;;23.50;16.55;;;3.10;99.90;;;;;;5056607;28;20412;-58
2021/12/08 04:43:29;;;;;;;22.77;16.48;;;3.10;99.90;;;;;;5071535;28;20421;-59
2021/12/08 04:46:11;;;;;;;23.43;16.37;;;3.10;99.90;;;;;;5054453;28;20464;-56
2021/12/08 05:09:54;;;;;;;20.38;16.35;;;2.70;99.90;;;;;;5053629;28;20429;-58
2021/12/08 05:12:24;;;;;;;22.63;15.87;;;2.70;99.90;;;;;;5056751;28;20703;-58
2021/12/08 05:14:58;;;;;;;22.50;16.20;;;2.70;99.90;;;;;;5057128;28;20504;-54
2021/12/08 05:17:36;;;;;;;21.33;16.20;;;2.60;99.90;;;;;;5057783;28;20509;-57
2021/12/08 05:20:23;;;;;;;23.50;17.00;;;2.60;99.90;;;;;;5075660;28;20383;-52
2021/12/08 05:22:56;;;;;;;22.65;16.25;;;2.60;99.90;;;;;;5074781;28;20648;-52
2021/12/08 05:25:29;;;;;;;22.50;16.85;;;2.60;99.90;;;;;;5073422;28;20880;-55
2021/12/08 05:27:59;;;;;;;24.42;16.20;;;2.50;99.90;;;;;;5057598;28;20380;-57
2021/12/08 05:30:31;;;;;;;22.08;16.73;;;2.50;99.90;;;;;;5074539;28;20711;-58
2021/12/08 05:32:58;;;;;;;22.38;16.85;;;2.60;99.90;;;;;;5056526;28;20408;-58
2021/12/08 05:35:25;;;;;;;22.42;16.45;;;2.60;99.90;;;;;;5073571;28;20387;-55
2021/12/08 05:37:51;;;;;;;24.95;17.40;;;2.60;99.90;;;;;;5056749;28;20998;-57
2021/12/08 05:40:22;;;;;;;24.45;17.30;;;2.60;99.90;;;;;;5056979;28;20786;-55
2021/12/08 05:42:48;;;;;;;25.08;17.60;;;2.50;99.90;;;;;;5056918;28;20827;-59
2021/12/08 05:45:18;;;;;;;23.40;17.17;;;2.50;99.90;;;;;;5055551;28;20419;-59
2021/12/08 05:47:46;;;;;;;24.75;17.70;;;2.50;99.90;;;;;;5056577;28;20799;-59
2021/12/08 05:50:16;;;;;;;23.88;17.45;;;2.50;99.90;;;;;;5055079;28;20491;-59
2021/12/08 05:52:42;;;;;;;23.08;17.73;;;2.50;99.90;;;;;;5072142;28;21021;-58
2021/12/08 05:55:08;;;;;;;24.03;17.70;;;2.50;99.90;;;;;;5071934;28;20396;-56
2021/12/08 05:57:38;;;;;;;24.63;18.33;;;2.40;99.90;;;;;;5054476;28;20395;-56
2021/12/08 06:00:07;;;;;;;23.77;18.00;;;2.40;99.90;;;;;;5054999;28;20384;-57
2021/12/08 06:02:37;;;;;;;25.53;18.73;;;2.40;99.90;;;;;;5052843;28;20403;-59
2021/12/08 06:05:05;;;;;;;26.67;18.83;;;2.40;99.90;;;;;;5051146;28;20447;-56
2021/12/08 06:07:30;;;;;;;27.05;19.05;;;2.30;99.90;;;;;;5050847;28;20806;-58
2021/12/08 06:10:00;;;;;;;24.98;18.38;;;2.30;99.90;;;;;;5068543;28;20379;-58
2021/12/08 06:12:26;;;;;;;23.30;18.15;;;2.40;99.90;;;;;;5069051;28;20424;-58
2021/12/08 06:14:55;;;;;;;23.77;18.77;;;2.40;99.90;;;;;;5051706;28;20671;-59
2021/12/08 06:17:24;;;;;;;26.77;19.10;;;2.30;99.90;;;;;;5049664;28;20742;-57
2021/12/08 06:19:50;;;;;;;26.08;19.38;;;2.30;99.90;;;;;;5049931;28;20388;-57
2021/12/08 06:22:19;;;;;;;27.25;20.30;;;2.30;99.90;;;;;;5050053;28;20391;-53
2021/12/08 06:24:46;;;;;;;26.80;19.47;;;2.30;99.90;;;;;;5067274;28;20379;-58
2021/12/08 06:27:13;;;;;;;25.15;19.02;;;2.20;99.90;;;;;;5049597;28;20465;-58
2021/12/08 06:29:42;;;;;;;26.88;19.52;;;2.20;99.90;;;;;;5051371;28;20379;-57
2021/12/08 06:32:10;;;;;;;26.42;19.58;;;2.20;99.90;;;;;;5049285;28;20736;-59
2021/12/08 06:34:38;;;;;;;26.67;20.25;;;2.20;99.90;;;;;;5068524;28;20400;-59
2021/12/08 06:37:09;;;;;;;28.00;20.33;;;2.20;99.90;;;;;;5052306;28;20464;-58
2021/12/08 06:39:59;;;;;;;25.27;19.13;;;2.20;99.90;;;;;;5052722;28;20457;-58
2021/12/08 06:42:32;;;;;;;26.70;19.98;;;2.30;99.90;;;;;;5051225;28;20557;-58
2021/12/08 06:44:59;;;;;;;26.88;20.15;;;2.20;99.90;;;;;;5051413;28;20372;-59
2021/12/08 06:47:29;;;;;;;28.87;20.63;;;2.20;99.90;;;;;;5051137;28;20520;-59
2021/12/08 06:49:58;;;;;;;25.45;19.65;;;2.20;99.90;;;;;;5070444;28;20465;-59
2021/12/08 06:52:30;;;;;;;27.33;19.85;;;2.20;99.90;;;;;;5070465;28;20595;-58
2021/12/08 06:55:00;;;;;;;29.20;20.90;;;2.30;99.90;;;;;;5053424;28;20491;-59
2021/12/08 06:57:33;;;;;;;27.80;20.27;;;2.20;99.90;;;;;;5051889;28;20482;-58
2021/12/08 07:00:13;;;;;;;26.75;19.67;;;2.30;99.90;;;;;;5066050;28;20772;-58
2021/12/08 07:05:28;;;;;;;27.30;20.83;;;2.30;99.90;;;;;;5065893;28;20379;-54
2021/12/08 07:07:58;;;;;;;27.33;20.42;;;2.30;99.90;;;;;;5048295;28;20599;-59
2021/12/08 07:10:37;;;;;;;25.42;19.00;;;2.30;99.90;;;;;;5066444;28;20791;-56
2021/12/08 07:13:06;;;;;;;28.25;20.77;;;2.30;99.90;;;;;;5065359;28;20702;-58
2021/12/08 07:15:50;;;;;;;26.70;19.52;;;2.30;99.90;;;;;;5061735;28;20856;-59
2021/12/08 07:18:24;;;;;;;27.30;20.15;;;2.30;99.90;;;;;;5045464;28;20388;-59
2021/12/08 07:20:56;;;;;;;29.60;21.33;;;2.30;99.90;;;;;;5048251;28;20831;-58
2021/12/08 07:23:36;;;;;;;27.65;19.80;;;2.30;99.90;;;;;;5047489;28;20606;-59
2021/12/08 07:26:06;;;;;;;28.15;20.05;;;2.30;99.90;;;;;;5047170;28;20464;-59
2021/12/08 07:28:32;;;;;;;26.88;19.38;;;2.30;99.90;;;;;;5047578;28;20379;-57
2021/12/08 07:31:04;;;;;;;28.25;20.05;;;2.30;99.90;;;;;;5050253;28;20414;-58
2021/12/08 07:33:30;;;;;;;27.65;20.38;;;2.20;99.90;;;;;;5050205;28;20420;-58
2021/12/08 07:35:59;;;;;;;26.13;18.75;;;2.30;99.90;;;;;;5067749;28;20376;-55
2021/12/08 07:38:31;;;;;;;28.00;20.00;;;2.30;99.90;;;;;;5048571;28;20462;-53
2021/12/08 07:41:02;;;;;;;28.80;20.65;;;2.30;99.90;;;;;;5047652;28;20403;-56
2021/12/08 07:43:28;;;;;;;29.10;20.50;;;2.30;99.90;;;;;;5046237;28;20633;-59
2021/12/08 07:46:03;;;;;;;24.73;18.30;;;2.30;99.90;;;;;;5065228;28;20771;-58
2021/12/08 07:48:34;;;;;;;26.73;19.83;;;2.30;99.90;;;;;;5067272;28;20399;-57
2021/12/08 07:51:31;;;;;;;26.53;19.40;;;2.30;99.90;;;;;;5049032;28;20453;-57
2021/12/08 07:53:59;;;;;;;25.23;19.42;;;2.30;99.90;;;;;;5045638;28;20376;-59
2021/12/08 07:56:26;;;;;;;27.83;19.80;;;2.30;99.90;;;;;;5048358;28;20453;-58
2021/12/08 07:59:00;;;;;;;25.13;19.75;;;2.30;99.90;;;;;;5046522;28;20777;-58
2021/12/08 08:01:30;;;;;;;25.20;19.65;;;2.30;99.90;;;;;;5046434;28;20380;-59
2021/12/08 08:04:06;;;;;;;26.20;19.67;;;2.30;99.90;;;;;;5048459;28;20668;-55
2021/12/08 08:06:38;;;;;;;24.73;18.57;;;2.30;99.90;;;;;;5048938;28;20453;-58
2021/12/08 08:09:08;;;;;;;25.70;18.85;;;2.40;99.90;;;;;;5064829;28;20383;-58
2021/12/08 08:11:41;;;;;;;23.98;18.05;;;2.30;99.90;;;;;;5066943;28;20691;-59
2021/12/08 08:14:10;;;;;;;24.58;17.63;;;2.30;99.90;;;;;;5049361;28;20407;-59
2021/12/08 08:16:38;;;;;;;22.77;17.48;;;2.40;99.90;;;;;;5049912;28;20379;-58
2021/12/08 08:19:12;;;;;;;23.08;17.45;;;2.40;99.90;;;;;;5068220;28;20388;-59
2021/12/08 08:21:42;;;;;;;21.77;17.23;;;2.30;99.90;;;;;;5067393;28;20444;-58
2021/12/08 08:24:07;;;;;;;30.23;17.77;;;2.40;99.90;;;;;;5047444;28;20479;-58
2021/12/08 08:26:35;;;;;;;28.58;18.45;;;2.40;99.90;;;;;;5047449;28;20486;-59
2021/12/08 08:29:00;;;;;;;26.48;17.65;;;2.40;99.90;;;;;;5049477;28;20886;-59
2021/12/08 08:31:55;;;;;;;24.67;16.90;;;2.40;99.90;;;;;;5047323;28;20691;-58
2021/12/08 08:34:21;;;;;;;22.40;16.70;;;2.50;99.90;;;;;;5065372;28;20489;-59
2021/12/08 08:36:49;;;;;;;23.35;17.52;;;2.50;99.90;;;;;;5048763;28;20393;-59
2021/12/08 08:39:28;;;;;;;21.95;16.23;;;2.50;99.90;;;;;;5049104;28;20380;-58
2021/12/08 08:41:59;;;;;;;21.90;16.67;;;2.50;99.90;;;;;;5047881;28;20830;-57
2021/12/08 08:44:37;;;;;;;23.88;16.92;;;2.50;99.90;;;;;;5047515;28;20802;-58
2021/12/08 08:47:08;;;;;;;21.58;16.40;;;2.50;99.90;;;;;;5066164;28;20386;-57
2021/12/08 08:49:36;;;;;;;21.67;17.20;;;2.50;99.90;;;;;;5067693;28;20422;-59
2021/12/08 08:52:27;;;;;;;21.85;16.50;;;2.60;99.90;;;;;;5050310;28;20780;-59
2021/12/08 08:54:57;;;;;;;22.60;16.67;;;2.60;99.90;;;;;;5053735;28;20455;-58
2021/12/08 08:57:34;;;;;;;20.75;15.70;;;2.60;99.90;;;;;;5055759;28;20472;-58
2021/12/08 09:00:15;;;;;;;20.23;15.23;;;2.50;99.90;;;;;;5056025;28;20403;-58
2021/12/08 09:02:42;;;;;;;21.63;15.52;;;2.60;99.90;;;;;;5073928;28;20845;-58
2021/12/08 09:05:23;;;;;;;21.90;16.65;;;2.60;99.90;;;;;;5074349;28;20715;-56
2021/12/08 09:07:55;;;;;;;20.58;16.25;;;2.60;99.90;;;;;;5055682;28;20384;-57
2021/12/08 09:10:26;;;;;;;18.92;15.60;;;2.60;99.90;;;;;;5056061;28;20395;-56
2021/12/08 09:12:57;;;;;;;21.77;15.77;;;2.60;99.90;;;;;;5072454;28;20416;-58
2021/12/08 09:15:32;;;;;;;21.23;15.57;;;2.60;99.90;;;;;;5055686;28;20388;-56
2021/12/08 09:18:07;;;;;;;22.13;16.52;;;2.60;99.90;;;;;;5054858;28;20430;-61
2021/12/08 09:20:53;;;;;;;21.77;16.90;;;2.70;99.90;;;;;;5053965;28;20427;-61
2021/12/08 09:23:27;;;;;;;21.90;16.50;;;3.00;99.90;;;;;;5051576;28;20677;-61
2021/12/08 09:26:07;;;;;;;21.08;17.10;;;3.10;99.90;;;;;;5052199;28;20444;-55
2021/12/08 09:28:42;;;;;;;20.85;15.82;;;3.10;99.90;;;;;;5069782;28;20380;-57
2021/12/08 09:31:24;;;;;;;21.15;15.98;;;3.00;99.90;;;;;;5035810;28;20388;-56
2021/12/08 09:33:56;;;;;;;20.48;16.00;;;3.00;99.90;;;;;;5051545;28;20383;-56
2021/12/08 09:36:31;;;;;;;;;;;2.80;99.90;;;;;;5055040;28;20582;-56
2021/12/08 09:39:02;;;;;;;;;;;2.70;99.90;;;;;;5055873;28;19961;-54
2021/12/08 09:41:37;;;;;;;;;;;2.80;99.90;;;;;;5038519;28;20112;-54
2021/12/08 09:47:07;;;;;;;;;;;2.70;99.90;;;;;;5056432;28;19915;-56
2021/12/08 09:49:35;;;;;;;;;;;2.70;99.90;;;;;;5064651;28;20370;-54
2021/12/08 09:52:05;;;;;;;;;;;2.70;99.90;;;;;;5052389;28;19908;-57
2021/12/08 09:54:32;;;;;;;;;;;2.70;99.90;;;;;;5052575;28;20246;-56
2021/12/08 09:56:59;;;;;;;;;;;2.70;99.90;;;;;;5052983;28;19998;-56
2021/12/08 09:59:25;;;;;;;;;;;2.70;99.90;;;;;;5070244;28;20010;-57
2021/12/08 10:01:52;;;;;;;;;;;2.70;99.90;;;;;;5071203;28;20003;-58
2021/12/08 10:04:19;;;;;;;;;;;2.80;99.90;;;;;;5053585;28;20281;-55
2021/12/08 10:06:49;;;;;;;;;;;2.80;99.90;;;;;;5055070;28;19967;-56
2021/12/08 10:09:17;;;;;;;;;;;2.70;99.90;;;;;;5055110;28;19932;-53
2021/12/08 10:11:55;;;;;;;;;;;2.80;99.90;;;;;;5055275;28;19904;-58
2021/12/08 10:14:22;;;;;;;;;;;2.80;99.90;;;;;;5050648;28;20269;-57
2021/12/08 10:16:50;;;;;;;;;;;2.80;99.90;;;;;;5051343;28;19905;-58
2021/12/08 10:19:17;;;;;;;;;;;2.80;99.90;;;;;;5051616;28;19912;-55
2021/12/08 10:21:45;;;;;;;21.17;13.17;;;2.80;99.90;;;;;;5052825;28;20003;-58
2021/12/08 10:24:23;;;;;;;22.83;17.10;;;2.80;99.90;;;;;;5029495;28;20402;-57
2021/12/08 10:27:14;;;;;;;20.90;15.88;;;2.90;99.90;;;;;;5027947;28;20383;-58
2021/12/08 10:30:21;;;;;;;21.77;15.60;;;2.90;99.90;;;;;;5015638;28;20383;-57
2021/12/08 10:32:48;;;;;;;20.05;15.15;;;3.00;99.90;;;;;;5043486;28;20433;-58
2021/12/08 10:38:43;;;;;;;20.50;15.05;;;3.10;99.90;;;;;;5029204;28;20439;-58
2021/12/08 10:41:16;;;;;;;17.70;13.75;;;3.10;99.90;;;;;;5043932;28;20406;-56
2021/12/08 10:44:03;;;;;;;23.33;15.15;;;3.10;99.90;;;;;;5044939;28;20415;-57
2021/12/08 10:46:44;;;;;;;20.77;15.40;;;3.20;99.90;;;;;;5043401;28;20421;-57
2021/12/08 10:49:27;;;;;;;18.05;14.27;;;3.20;99.90;;;;;;5082067;28;20450;-52
2021/12/08 10:54:38;;;;;;;18.08;13.88;;;3.20;99.90;;;;;;5089699;28;20384;-58
2021/12/08 10:57:23;;;;;;;19.50;13.57;;;3.20;99.90;;;;;;5065858;28;20708;-56
2021/12/08 11:00:10;;;;;;;19.90;14.53;;;3.30;99.90;;;;;;5082730;28;20381;-57
2021/12/08 11:02:53;;;;;;;16.88;13.52;;;3.30;99.90;;;;;;5064448;28;20405;-56
2021/12/08 11:05:25;;;;;;;20.45;14.73;;;3.30;99.90;;;;;;5067768;28;20436;-57
2021/12/08 11:08:18;;;;;;;21.63;14.70;;;3.30;99.90;;;;;;5089919;28;20421;-54
2021/12/08 11:11:04;;;;;;;19.80;14.15;;;3.30;99.90;;;;;;5071970;28;20415;-56
2021/12/08 11:13:36;;;;;;;16.75;13.45;;;3.30;99.90;;;;;;5072230;28;20472;-56
2021/12/08 11:16:21;;;;;;;17.95;13.98;;;3.30;99.90;;;;;;5073057;28;20410;-56
2021/12/08 11:18:49;;;;;;;17.08;13.90;;;3.30;99.90;;;;;;5071409;28;20393;-58
2021/12/08 11:21:24;;;;;;;18.58;14.80;;;3.30;99.90;;;;;;5088713;28;20862;-57
2021/12/08 11:23:52;;;;;;;18.92;13.80;;;3.30;99.90;;;;;;5069376;28;20402;-54
2021/12/08 11:26:58;;;;;;;19.48;14.23;;;3.30;99.90;;;;;;5069092;28;20684;-56
2021/12/08 11:29:26;;;;;;;16.23;13.48;;;3.30;99.90;;;;;;5087321;28;20592;-56
2021/12/08 11:31:56;;;;;;;16.58;13.15;;;3.30;99.90;;;;;;5068692;28;20380;-57
2021/12/08 11:34:41;;;;;;;17.27;13.85;;;3.30;99.90;;;;;;5069589;28;20823;-56
2021/12/08 11:37:13;;;;;;;18.83;14.00;;;3.30;99.90;;;;;;5067664;28;20682;-54
2021/12/08 11:39:41;;;;;;;18.20;13.50;;;3.30;99.90;;;;;;5069440;28;20488;-55
2021/12/08 11:42:14;;;;;;;16.60;13.87;;;3.40;99.90;;;;;;5070122;28;20390;-54
2021/12/08 11:44:43;;;;;;;17.98;14.00;;;3.40;99.90;;;;;;5068880;28;20994;-58
2021/12/08 11:47:15;;;;;;;19.55;13.57;;;3.40;99.90;;;;;;5071504;28;21032;-57
2021/12/08 11:49:48;;;;;;;17.80;13.18;;;3.30;99.90;;;;;;5072378;28;20485;-56
2021/12/08 11:52:19;;;;;;;19.27;14.05;;;3.40;99.90;;;;;;5072227;28;20386;-57
2021/12/08 11:54:50;;;;;;;18.55;14.35;;;3.40;99.90;;;;;;5089161;28;20861;-56
2021/12/08 11:57:17;;;;;;;18.23;13.33;;;3.40;99.90;;;;;;5072283;28;20409;-56
2021/12/08 11:59:56;;;;;;;17.13;13.57;;;3.40;99.90;;;;;;5088063;28;20389;-54
2021/12/08 12:02:26;;;;;;;18.77;13.98;;;3.50;99.90;;;;;;5068159;28;20524;-58
2021/12/08 12:04:53;;;;;;;19.13;14.73;;;3.50;99.90;;;;;;5067329;28;20926;-57
2021/12/08 12:07:18;;;;;;;20.33;14.23;;;3.60;99.90;;;;;;5065299;28;20381;-57
2021/12/08 12:09:45;;;;;;;19.15;14.10;;;3.80;99.90;;;;;;5063652;28;20381;-57
2021/12/08 12:12:12;;;;;;;22.60;13.80;;;4.00;99.90;;;;;;5065638;28;20386;-55
2021/12/08 12:14:39;;;;;;;18.65;13.88;;;4.00;99.90;;;;;;5067338;28;20382;-57
2021/12/08 12:17:05;;;;;;;18.80;13.80;;;4.10;99.90;;;;;;5069187;28;20474;-57
2021/12/08 12:19:44;;;;;;;20.90;13.87;;;4.10;99.90;;;;;;5068655;28;20397;-53
2021/12/08 12:29:16;;;;;;;15.48;12.90;;;4.30;99.90;;;;;;5084344;28;20454;-56
2021/12/08 12:32:03;;;;;;;18.13;13.77;;;4.20;99.90;;;;;;5065337;28;20833;-57
2021/12/08 12:34:35;;;;;;;18.83;13.93;;;4.20;99.90;;;;;;5068835;28;20400;-58
2021/12/08 12:37:14;;;;;;;18.42;13.52;;;4.10;99.90;;;;;;5068974;28;20389;-57
2021/12/08 12:40:14;;;;;;;17.38;14.23;;;3.90;99.90;;;;;;5068763;28;20385;-55
2021/12/08 12:42:55;;;;;;;19.00;14.15;;;3.90;99.90;;;;;;5068311;28;20398;-57
2021/12/08 12:45:23;;;;;;;17.67;13.85;;;3.90;99.90;;;;;;5065056;28;20386;-57
2021/12/08 12:48:08;;;;;;;18.38;14.10;;;3.90;99.90;;;;;;5084453;28;20410;-56
2021/12/08 12:50:54;;;;;;;20.50;14.45;;;3.80;99.90;;;;;;5067565;28;20674;-58
2021/12/08 12:53:35;;;;;;;19.77;14.80;;;3.80;99.90;;;;;;5067150;28;20385;-58
2021/12/08 12:56:01;;;;;;;21.73;15.35;;;3.80;99.90;;;;;;5066290;28;20390;-57
2021/12/08 12:58:50;;;;;;;22.70;15.40;;;3.80;99.90;;;;;;5069122;28;20412;-56
2021/12/08 13:01:42;;;;;;;19.70;15.00;;;3.80;99.90;;;;;;5071011;28;20374;-54
2021/12/08 13:05:08;;;;;;;19.15;14.38;;;3.80;99.90;;;;;;5073173;28;20416;-55
2021/12/08 13:07:39;;;;;;;21.67;14.75;;;3.70;99.90;;;;;;5064576;28;20414;-56
2021/12/08 13:10:13;;;;;;;21.98;14.85;;;3.70;99.90;;;;;;5071602;28;20978;-58
2021/12/08 13:12:41;;;;;;;24.13;15.82;;;3.70;99.90;;;;;;5070131;28;20393;-55
2021/12/08 13:15:14;;;;;;;21.33;15.05;;;3.70;99.90;;;;;;5068630;28;20560;-54
2021/12/08 13:17:58;;;;;;;21.38;15.20;;;3.80;99.90;;;;;;5059365;28;20659;-56
2021/12/08 13:20:26;;;;;;;23.15;15.63;;;3.80;99.90;;;;;;5058063;28;20697;-58
2021/12/08 13:22:58;;;;;;;22.50;15.10;;;3.80;99.90;;;;;;5059335;28;20397;-58
2021/12/08 13:26:22;;;;;;;21.92;15.05;;;3.80;99.90;;;;;;5058369;28;20382;-57
2021/12/08 13:28:31;;;;;;;18.30;13.85;;;3.80;99.90;;;;;;5064945;28;20383;-58
2021/12/08 13:31:14;;;;;;;20.77;15.15;;;3.90;99.90;;;;;;5075356;28;20377;-58
2021/12/08 13:33:53;;;;;;;24.83;16.10;;;3.90;99.90;;;;;;5059894;28;20390;-55
2021/12/08 13:36:31;;;;;;;20.23;15.20;;;3.90;99.90;;;;;;5069593;28;20492;-57
2021/12/08 13:38:57;;;;;;;20.13;14.57;;;3.90;99.90;;;;;;5070868;28;20447;-57
2021/12/08 13:41:25;;;;;;;20.27;14.20;;;3.90;99.90;;;;;;5087851;28;20389;-56
2021/12/08 13:43:50;;;;;;;21.77;15.77;;;3.90;99.90;;;;;;5070457;28;20487;-54
2021/12/08 13:46:49;;;;;;;23.53;14.73;;;3.90;99.90;;;;;;5070612;28;20444;-58
2021/12/08 13:49:46;;;;;;;21.52;15.02;;;3.90;99.90;;;;;;5032433;28;20442;-55
2021/12/08 13:52:12;;;;;;;20.55;15.45;;;3.90;99.90;;;;;;5051740;28;20751;-58
2021/12/08 13:54:39;;;;;;;17.67;13.93;;;3.90;99.90;;;;;;5070423;28;20396;-58
2021/12/08 13:57:43;;;;;;;21.48;15.20;;;3.90;99.90;;;;;;5048089;28;20379;-56
2021/12/08 14:00:12;;;;;;;19.27;14.48;;;3.90;99.90;;;;;;5034881;28;20802;-57
2021/12/08 14:02:38;;;;;;;20.53;15.03;;;3.90;99.90;;;;;;5048643;28;20872;-58
2021/12/08 14:05:09;;;;;;;22.73;14.97;;;3.90;99.90;;;;;;5050756;28;20431;-57
2021/12/08 14:07:41;;;;;;;20.95;14.85;;;3.80;99.90;;;;;;5054877;28;20392;-58